createdAt,value
2018-01-02T00:01:55.270Z,0.93
2018-01-02T00:04:21.971Z,0.90
2018-01-02T00:06:48.687Z,1.10
2018-01-02T00:09:15.360Z,1.10
2018-01-02T00:11:42.049Z,1.40
2018-01-02T00:14:08.750Z,0.77
2018-01-02T00:16:35.431Z,1.07
2018-01-02T00:19:02.107Z,0.77
2018-01-02T00:21:28.806Z,1.10
2018-01-02T00:23:55.501Z,0.80
2018-01-02T00:26:22.162Z,1.10
2018-01-02T00:28:48.877Z,0.90
2018-01-02T00:31:15.552Z,0.90
2018-01-02T00:33:42.257Z,1.10
2018-01-02T00:36:08.940Z,1.03
2018-01-02T00:38:35.883Z,1.20
2018-01-02T00:41:02.614Z,0.90
2018-01-02T00:43:29.327Z,0.70
2018-01-02T00:45:56.045Z,1.00
2018-01-02T00:48:22.717Z,1.17
2018-01-02T00:50:49.432Z,1.03
2018-01-02T00:53:16.105Z,0.93
2018-01-02T00:55:42.806Z,0.83
2018-01-02T00:58:09.480Z,1.03
2018-01-02T01:00:36.189Z,1.00
2018-01-02T01:03:02.904Z,0.97
2018-01-02T01:05:29.574Z,1.30
2018-01-02T01:07:56.257Z,1.10
2018-01-02T01:10:22.939Z,1.43
2018-01-02T01:12:49.669Z,0.93
2018-01-02T01:15:16.364Z,1.10
2018-01-02T01:17:43.032Z,0.80
2018-01-02T01:20:09.747Z,1.00
2018-01-02T01:22:36.460Z,0.90
2018-01-02T01:25:03.191Z,0.70
2018-01-02T01:27:29.889Z,0.90
2018-01-02T01:29:56.558Z,1.00
2018-01-02T01:32:23.259Z,1.40
2018-01-02T01:34:49.940Z,1.17
2018-01-02T01:37:17.497Z,1.30
2018-01-02T01:39:44.225Z,1.20
2018-01-02T01:42:10.951Z,1.17
2018-01-02T01:44:37.650Z,1.30
2018-01-02T01:47:05.451Z,1.10
2018-01-02T01:49:32.144Z,1.50
2018-01-02T01:51:58.833Z,1.77
2018-01-02T01:54:25.545Z,1.30
2018-01-02T01:56:52.265Z,1.20
2018-01-02T01:59:18.940Z,1.70
2018-01-02T02:01:45.629Z,0.93
2018-01-02T02:04:12.333Z,1.20
2018-01-02T02:06:39.010Z,1.67
2018-01-02T02:09:05.693Z,1.57
2018-01-02T02:11:32.414Z,1.37
2018-01-02T02:13:59.164Z,1.30
2018-01-02T02:16:25.841Z,1.20
2018-01-02T02:18:52.546Z,1.63
2018-01-02T02:21:19.220Z,1.57
2018-01-02T02:23:45.898Z,1.43
2018-01-02T02:26:12.571Z,1.43
2018-01-02T02:28:39.242Z,0.90
2018-01-02T02:31:05.949Z,1.30
2018-01-02T02:33:32.658Z,1.20
2018-01-02T02:35:59.361Z,1.07
2018-01-02T02:38:26.041Z,1.10
2018-01-02T02:40:58.555Z,0.63
2018-01-02T02:43:25.236Z,0.70
2018-01-02T02:45:51.957Z,1.03
2018-01-02T02:48:18.648Z,1.03
2018-01-02T02:50:45.333Z,0.87
2018-01-02T02:53:12.016Z,0.70
2018-01-02T02:55:38.698Z,0.80
2018-01-02T02:58:05.404Z,0.80
2018-01-02T03:00:32.094Z,1.00
2018-01-02T03:02:58.820Z,0.77
2018-01-02T03:05:25.503Z,1.53
2018-01-02T03:07:52.190Z,0.80
2018-01-02T03:10:18.889Z,0.90
2018-01-02T03:12:45.557Z,0.83
2018-01-02T03:15:12.250Z,0.90
2018-01-02T03:17:38.954Z,0.80
2018-01-02T03:20:05.642Z,0.90
2018-01-02T03:22:32.362Z,1.20
2018-01-02T03:24:59.052Z,1.07
2018-01-02T03:27:25.724Z,1.20
2018-01-02T03:29:52.419Z,1.43
2018-01-02T03:32:19.080Z,1.00
2018-01-02T03:34:45.757Z,1.00
2018-01-02T03:37:12.467Z,0.80
2018-01-02T03:39:39.172Z,0.80
2018-01-02T03:42:05.886Z,0.90
2018-01-02T03:44:32.558Z,0.70
2018-01-02T03:46:59.243Z,1.23
2018-01-02T03:49:25.937Z,1.10
2018-01-02T03:51:52.607Z,0.93
2018-01-02T03:54:19.338Z,1.57
2018-01-02T03:56:46.083Z,1.20
2018-01-02T03:59:12.798Z,1.13
2018-01-02T04:01:39.480Z,1.50
2018-01-02T04:04:06.181Z,1.60
2018-01-02T04:06:32.866Z,1.33
2018-01-02T04:08:59.561Z,1.53
2018-01-02T04:11:26.277Z,1.20
2018-01-02T04:13:52.976Z,1.40
2018-01-02T04:16:19.671Z,1.83
2018-01-02T04:18:46.379Z,1.80
2018-01-02T04:21:13.086Z,1.50
2018-01-02T04:23:39.746Z,1.20
2018-01-02T04:26:06.422Z,1.23
2018-01-02T04:28:33.138Z,1.30
2018-01-02T04:30:59.829Z,2.10
2018-01-02T04:33:26.522Z,1.97
2018-01-02T04:35:53.797Z,1.17
2018-01-02T04:38:20.514Z,1.30
2018-01-02T04:40:47.229Z,1.40
2018-01-02T04:43:13.944Z,1.40
2018-01-02T04:45:40.645Z,2.60
2018-01-02T04:48:07.319Z,1.30
2018-01-02T04:50:34.010Z,1.57
2018-01-02T04:53:00.678Z,2.20
2018-01-02T04:55:27.390Z,2.00
2018-01-02T04:57:54.120Z,2.37
2018-01-02T05:00:20.783Z,2.13
2018-01-02T05:02:47.474Z,2.27
2018-01-02T05:05:14.150Z,1.77
2018-01-02T05:07:40.839Z,1.60
2018-01-02T05:10:07.505Z,2.07
2018-01-02T05:12:34.192Z,1.73
2018-01-02T05:15:00.877Z,2.23
2018-01-02T05:17:27.556Z,1.70
2018-01-02T05:19:54.246Z,2.77
2018-01-02T05:22:20.944Z,2.20
2018-01-02T05:24:47.628Z,2.70
2018-01-02T05:27:14.303Z,3.30
2018-01-02T05:29:41.095Z,3.33
2018-01-02T05:32:07.817Z,2.93
2018-01-02T05:34:34.532Z,2.60
2018-01-02T05:37:01.241Z,3.40
2018-01-02T05:39:27.926Z,1.90
2018-01-02T05:41:54.597Z,2.63
2018-01-02T05:44:21.295Z,2.37
2018-01-02T05:46:47.988Z,2.50
2018-01-02T05:49:14.677Z,2.53
2018-01-02T05:51:41.366Z,2.20
2018-01-02T05:54:08.033Z,3.00
2018-01-02T05:56:34.725Z,1.90
2018-01-02T05:59:01.540Z,1.80
2018-01-02T06:01:28.223Z,2.13
2018-01-02T06:03:55.052Z,2.00
2018-01-02T06:06:21.716Z,1.33
2018-01-02T06:08:48.417Z,1.63
2018-01-02T06:11:15.113Z,1.50
2018-01-02T06:13:41.886Z,1.40
2018-01-02T06:16:08.620Z,1.43
2018-01-02T06:18:35.341Z,1.67
2018-01-02T06:21:02.007Z,1.30
2018-01-02T06:23:28.712Z,1.30
2018-01-02T06:25:55.500Z,1.10
2018-01-02T06:28:22.163Z,1.20
2018-01-02T06:30:48.914Z,1.33
2018-01-02T06:33:15.586Z,1.03
2018-01-02T06:35:42.278Z,0.87
2018-01-02T06:38:09.001Z,1.23
2018-01-02T06:40:35.701Z,1.57
2018-01-02T06:43:02.685Z,1.20
2018-01-02T06:45:29.359Z,1.03
2018-01-02T06:47:56.024Z,1.00
2018-01-02T06:50:22.738Z,1.13
2018-01-02T06:52:49.411Z,1.43
2018-01-02T06:55:16.096Z,1.30
2018-01-02T06:57:42.793Z,1.40
2018-01-02T07:00:09.468Z,1.50
2018-01-02T07:02:36.174Z,1.40
2018-01-02T07:05:02.884Z,1.43
2018-01-02T07:07:29.580Z,1.43
2018-01-02T07:09:56.268Z,1.70
2018-01-02T07:12:22.982Z,1.50
2018-01-02T07:14:49.697Z,1.70
2018-01-02T07:17:16.397Z,1.33
2018-01-02T07:19:43.151Z,1.40
2018-01-02T07:22:09.845Z,1.60
2018-01-02T07:24:36.558Z,1.20
2018-01-02T07:27:03.253Z,1.97
2018-01-02T07:29:30.668Z,1.33
2018-01-02T07:31:57.345Z,1.40
2018-01-02T07:34:24.082Z,1.50
2018-01-02T07:36:50.884Z,2.77
2018-01-02T07:39:17.589Z,1.30
2018-01-02T07:41:44.315Z,1.60
2018-01-02T07:44:11.026Z,1.40
2018-01-02T07:46:37.729Z,1.17
2018-01-02T07:49:04.458Z,1.13
2018-01-02T07:51:31.133Z,1.83
2018-01-02T07:53:57.809Z,1.63
2018-01-02T07:56:24.514Z,1.67
2018-01-02T07:58:51.186Z,1.70
2018-01-02T08:01:17.945Z,1.33
2018-01-02T08:03:44.829Z,1.87
2018-01-02T08:06:11.520Z,1.67
2018-01-02T08:08:38.220Z,1.83
2018-01-02T08:11:04.914Z,1.70
2018-01-02T08:13:31.617Z,1.83
2018-01-02T08:15:58.317Z,1.40
2018-01-02T08:18:25.061Z,1.50
2018-01-02T08:20:51.763Z,1.43
2018-01-02T08:23:18.456Z,1.83
2018-01-02T08:25:45.198Z,1.67
2018-01-02T08:28:11.872Z,1.67
2018-01-02T08:30:38.571Z,2.40
2018-01-02T08:33:05.249Z,2.03
2018-01-02T08:35:31.949Z,1.93
2018-01-02T08:37:58.616Z,1.90
2018-01-02T08:40:25.320Z,1.83
2018-01-02T08:42:52.055Z,1.90
2018-01-02T08:45:18.739Z,1.90
2018-01-02T08:47:45.436Z,2.20
2018-01-02T08:50:12.137Z,2.47
2018-01-02T08:52:38.833Z,3.00
2018-01-02T08:55:05.514Z,2.10
2018-01-02T08:57:32.216Z,2.10
2018-01-02T08:59:58.983Z,2.77
2018-01-02T09:02:25.665Z,2.13
2018-01-02T09:04:52.397Z,1.73
2018-01-02T09:07:19.176Z,2.77
2018-01-02T09:09:45.912Z,2.27
2018-01-02T09:12:18.292Z,1.73
2018-01-02T09:14:49.872Z,2.50
2018-01-02T09:17:16.653Z,2.83
2018-01-02T09:19:43.327Z,2.17
2018-01-02T09:22:10.024Z,2.07
2018-01-02T09:24:36.918Z,1.97
2018-01-02T09:27:03.670Z,2.23
2018-01-02T09:29:30.427Z,2.53
2018-01-02T09:31:57.188Z,3.03
2018-01-02T09:34:23.888Z,2.20
2018-01-02T09:36:51.526Z,2.37
2018-01-02T09:39:18.218Z,2.30
2018-01-02T09:41:45.014Z,2.10
2018-01-02T09:44:11.717Z,2.90
2018-01-02T09:46:38.393Z,2.40
2018-01-02T09:49:08.641Z,3.03
2018-01-02T09:51:35.329Z,3.10
2018-01-02T09:54:02.272Z,2.37
2018-01-02T09:56:28.994Z,2.67
2018-01-02T09:58:55.685Z,2.37
2018-01-02T10:01:22.393Z,2.27
2018-01-02T10:03:49.057Z,2.47
2018-01-02T10:06:15.750Z,2.17
2018-01-02T10:08:42.433Z,2.17
2018-01-02T10:11:09.143Z,1.80
2018-01-02T10:13:35.824Z,2.40
2018-01-02T10:16:02.537Z,2.77
2018-01-02T10:18:29.230Z,2.50
2018-01-02T10:20:56.835Z,2.10
2018-01-02T10:23:23.536Z,2.03
2018-01-02T10:25:50.212Z,4.13
2018-01-02T10:28:17.384Z,4.20
2018-01-02T10:30:44.080Z,2.43
2018-01-02T10:33:10.784Z,2.43
2018-01-02T10:35:37.530Z,2.47
2018-01-02T10:38:04.212Z,2.30
2018-01-02T10:40:30.973Z,1.97
2018-01-02T10:42:57.737Z,2.07
2018-01-02T10:45:25.344Z,2.30
2018-01-02T10:47:52.177Z,2.33
2018-01-02T10:50:19.238Z,2.50
2018-01-02T10:52:45.973Z,2.97
2018-01-02T10:55:12.663Z,2.37
2018-01-02T10:57:39.481Z,3.17
2018-01-02T11:00:06.238Z,2.97
2018-01-02T11:02:33.005Z,2.67
2018-01-02T11:04:59.729Z,2.97
2018-01-02T11:07:26.521Z,2.87
2018-01-02T11:09:53.648Z,2.47
2018-01-02T11:12:25.976Z,2.50
2018-01-02T11:14:52.673Z,2.50
2018-01-02T11:17:19.388Z,1.77
2018-01-02T11:19:46.066Z,2.40
2018-01-02T11:22:12.806Z,2.20
2018-01-02T11:24:39.481Z,2.27
2018-01-02T11:27:06.302Z,2.20
2018-01-02T11:29:33.008Z,2.20
2018-01-02T11:31:59.698Z,2.50
2018-01-02T11:34:26.492Z,2.40
2018-01-02T11:36:53.173Z,2.50
2018-01-02T11:39:19.848Z,2.53
2018-01-02T11:41:46.781Z,2.00
2018-01-02T11:44:13.460Z,2.50
2018-01-02T11:46:40.167Z,2.47
2018-01-02T11:49:06.920Z,3.10
2018-01-02T11:51:33.635Z,2.17
2018-01-02T11:54:00.348Z,3.07
2018-01-02T11:56:27.051Z,2.40
2018-01-02T11:58:53.768Z,2.37
2018-01-02T12:01:20.477Z,3.10
2018-01-02T12:03:47.167Z,3.27
2018-01-02T12:06:13.895Z,3.13
2018-01-02T12:08:40.686Z,2.60
2018-01-02T12:11:07.420Z,3.43
2018-01-02T12:13:34.089Z,3.10
2018-01-02T12:16:00.838Z,2.87
2018-01-02T12:18:27.578Z,2.57
2018-01-02T12:20:54.821Z,2.63
2018-01-02T12:23:21.530Z,3.20
2018-01-02T12:25:48.255Z,3.47
2018-01-02T12:28:14.959Z,3.43
2018-01-02T12:30:41.648Z,2.97
2018-01-02T12:33:08.359Z,2.60
2018-01-02T12:35:35.025Z,2.90
2018-01-02T12:38:01.740Z,3.27
2018-01-02T12:40:28.423Z,2.90
2018-01-02T12:42:55.121Z,2.93
2018-01-02T12:45:21.892Z,2.97
2018-01-02T12:47:48.537Z,3.23
2018-01-02T12:50:15.229Z,2.90
2018-01-02T12:52:41.933Z,3.17
2018-01-02T12:55:08.641Z,2.80
2018-01-02T12:57:35.321Z,2.80
2018-01-02T13:00:02.040Z,3.10
2018-01-02T13:02:28.734Z,2.87
2018-01-02T13:04:55.430Z,3.40
2018-01-02T13:07:22.140Z,3.20
2018-01-02T13:09:48.893Z,3.80
2018-01-02T13:12:15.566Z,2.90
2018-01-02T13:14:42.293Z,3.47
2018-01-02T13:17:08.983Z,2.43
2018-01-02T13:19:35.666Z,3.27
2018-01-02T13:22:02.620Z,4.40
2018-01-02T13:24:29.305Z,3.00
2018-01-02T13:26:56.001Z,2.93
2018-01-02T13:29:22.701Z,3.93
2018-01-02T13:31:49.419Z,2.97
2018-01-02T13:34:16.205Z,2.97
2018-01-02T13:36:42.891Z,3.30
2018-01-02T13:39:09.597Z,3.43
2018-01-02T13:41:36.358Z,3.10
2018-01-02T13:44:03.045Z,3.30
2018-01-02T13:46:30.024Z,4.30
2018-01-02T13:48:56.718Z,3.50
2018-01-02T13:51:23.529Z,3.10
2018-01-02T13:53:50.204Z,3.90
2018-01-02T13:56:16.915Z,3.37
2018-01-02T13:58:43.674Z,2.80
2018-01-02T14:01:10.388Z,3.03
2018-01-02T14:03:37.101Z,3.37
2018-01-02T14:06:04.162Z,2.70
2018-01-02T14:08:30.974Z,2.87
2018-01-02T14:10:57.676Z,3.33
2018-01-02T14:13:24.393Z,3.13
2018-01-02T14:15:51.137Z,3.53
2018-01-02T14:18:18.062Z,3.60
2018-01-02T14:20:44.784Z,3.57
2018-01-02T14:23:11.477Z,3.03
2018-01-02T14:25:38.177Z,3.30
2018-01-02T14:28:04.944Z,3.00
2018-01-02T14:30:31.641Z,3.77
2018-01-02T14:32:58.335Z,3.10
2018-01-02T14:35:25.086Z,3.80
2018-01-02T14:37:51.800Z,3.43
2018-01-02T14:40:18.486Z,3.13
2018-01-02T14:42:45.238Z,3.13
2018-01-02T14:45:11.938Z,3.47
2018-01-02T14:47:38.646Z,3.63
2018-01-02T14:50:05.334Z,4.00
2018-01-02T14:52:32.065Z,4.37
2018-01-02T14:54:58.760Z,3.10
2018-01-02T14:57:25.516Z,4.00
2018-01-02T14:59:52.271Z,3.30
2018-01-02T15:02:18.962Z,3.97
2018-01-02T15:04:45.690Z,4.07
2018-01-02T15:07:12.416Z,3.10
2018-01-02T15:09:39.125Z,3.70
2018-01-02T15:12:05.915Z,3.50
2018-01-02T15:14:32.642Z,4.23
2018-01-02T15:16:59.356Z,3.30
2018-01-02T15:19:26.156Z,3.63
2018-01-02T15:21:53.251Z,3.00
2018-01-02T15:24:20.049Z,3.90
2018-01-02T15:26:46.756Z,3.33
2018-01-02T15:29:19.948Z,2.93
2018-01-02T15:31:46.756Z,3.27
2018-01-02T15:34:13.538Z,3.20
2018-01-02T15:36:44.847Z,2.90
2018-01-02T15:39:11.763Z,3.00
2018-01-02T15:41:40.693Z,3.17
2018-01-02T15:44:07.491Z,3.97
2018-01-02T15:46:34.384Z,3.00
2018-01-02T15:49:01.105Z,3.53
2018-01-02T15:51:27.871Z,2.97
2018-01-02T15:53:54.844Z,3.73
2018-01-02T15:56:21.617Z,3.57
2018-01-02T15:58:48.356Z,3.13
2018-01-02T16:01:15.071Z,3.57
2018-01-02T16:03:42.289Z,4.10
2018-01-02T16:06:14.963Z,12.47
2018-01-02T16:08:41.719Z,3.47
2018-01-02T16:11:25.532Z,3.40
2018-01-02T16:13:55.966Z,3.87
2018-01-02T16:16:22.747Z,3.30
2018-01-02T16:21:38.548Z,3.70
2018-01-02T16:26:52.448Z,3.50
2018-01-02T16:29:21.199Z,3.73
2018-01-02T16:34:54.188Z,3.03
2018-01-02T16:37:26.999Z,3.37
2018-01-02T16:39:53.729Z,3.47
2018-01-02T16:42:20.475Z,3.40
2018-01-02T16:44:47.506Z,3.90
2018-01-02T16:47:14.516Z,2.70
2018-01-02T16:49:42.027Z,2.80
2018-01-02T16:52:08.951Z,3.17
2018-01-02T16:54:35.884Z,3.30
2018-01-02T16:57:02.647Z,3.47
2018-01-02T16:59:29.354Z,3.40
2018-01-02T17:01:56.123Z,2.73
2018-01-02T17:04:22.882Z,3.70
2018-01-02T17:06:49.610Z,4.20
2018-01-02T17:09:16.293Z,3.10
2018-01-02T17:11:43.004Z,3.13
2018-01-02T17:14:09.703Z,3.97
2018-01-02T17:16:48.629Z,3.63
2018-01-02T17:19:26.242Z,3.17
2018-01-02T17:21:53.043Z,3.40
2018-01-02T17:24:20.142Z,3.17
2018-01-02T17:26:47.299Z,3.10
2018-01-02T17:29:14.381Z,3.10
2018-01-02T18:13:46.039Z,3.40
2018-01-02T18:16:14.310Z,3.43
2018-01-02T18:18:41.070Z,3.47
2018-01-02T18:21:07.779Z,3.37
2018-01-02T18:23:34.610Z,3.33
2018-01-02T18:26:01.340Z,3.70
2018-01-02T18:28:28.010Z,3.30
2018-01-02T18:30:54.729Z,3.30
2018-01-02T18:33:21.449Z,3.40
2018-01-02T18:35:48.296Z,3.50
2018-01-02T18:38:15.126Z,4.00
2018-01-02T18:40:41.877Z,3.30
2018-01-02T18:43:22.546Z,3.97
2018-01-02T18:45:49.263Z,3.50
2018-01-02T18:48:15.970Z,3.80
2018-01-02T18:50:42.856Z,3.20
2018-01-02T18:53:09.569Z,3.60
2018-01-02T18:55:36.276Z,3.33
2018-01-02T18:58:03.050Z,3.20
2018-01-02T19:00:29.858Z,3.40
2018-01-02T19:02:56.575Z,3.40
2018-01-02T19:05:23.932Z,4.30
2018-01-02T19:07:50.900Z,3.10
2018-01-02T19:10:17.602Z,4.37
2018-01-02T19:12:44.345Z,3.80
2018-01-02T19:15:11.091Z,4.00
2018-01-02T19:17:37.891Z,3.63
2018-01-02T19:20:04.681Z,3.23
2018-01-02T19:22:31.406Z,3.50
2018-01-02T19:24:58.117Z,3.13
2018-01-02T19:27:24.908Z,3.40
2018-01-02T19:29:51.702Z,3.30
2018-01-02T19:32:18.427Z,4.33
2018-01-02T19:34:45.252Z,3.80
2018-01-02T19:37:11.980Z,3.47
2018-01-02T19:39:38.744Z,3.00
2018-01-02T19:42:05.587Z,2.90
2018-01-02T19:44:32.290Z,3.10
2018-01-02T19:46:59.101Z,3.17
2018-01-02T19:49:26.030Z,2.83
2018-01-02T19:51:52.852Z,3.67
2018-01-02T19:54:19.783Z,3.20
2018-01-02T19:56:46.524Z,2.90
2018-01-02T19:59:13.424Z,2.77
2018-01-02T20:01:40.232Z,3.90
2018-01-02T20:04:07.034Z,3.40
2018-01-02T20:06:33.862Z,2.33
2018-01-02T20:09:00.802Z,2.87
2018-01-02T20:11:27.679Z,2.93
2018-01-02T20:13:54.465Z,2.87
2018-01-02T20:16:21.329Z,2.70
2018-01-02T20:18:49.421Z,3.40
2018-01-02T20:21:16.382Z,2.50
2018-01-02T20:23:43.212Z,3.27
2018-01-02T20:26:10.037Z,2.40
2018-01-02T20:28:36.898Z,2.70
2018-01-02T20:31:03.674Z,2.50
2018-01-02T20:33:30.456Z,2.03
2018-01-02T20:35:57.200Z,2.30
2018-01-02T20:38:24.009Z,2.10
2018-01-02T20:41:06.244Z,1.97
2018-01-02T20:43:33.043Z,1.83
2018-01-02T20:45:59.741Z,2.33
2018-01-02T20:48:26.453Z,1.50
2018-01-02T20:50:53.373Z,2.60
2018-01-02T20:53:20.063Z,1.97
2018-01-02T20:55:46.770Z,2.00
2018-01-02T20:58:13.479Z,1.80
2018-01-02T21:00:40.186Z,1.80
2018-01-02T21:03:06.926Z,2.00
2018-01-02T21:05:33.730Z,1.57
2018-01-02T21:08:00.421Z,2.03
2018-01-02T21:10:27.112Z,1.60
2018-01-02T21:12:53.874Z,2.00
2018-01-02T21:15:20.550Z,2.10
2018-01-02T21:17:47.301Z,2.27
2018-01-02T21:20:14.049Z,1.80
2018-01-02T21:22:40.782Z,2.17
2018-01-02T21:25:08.276Z,1.67
2018-01-02T21:27:35.073Z,1.60
2018-01-02T21:30:01.812Z,1.50
2018-01-02T21:32:29.166Z,1.67
2018-01-02T21:34:55.908Z,1.43
2018-01-02T21:37:22.608Z,1.60
2018-01-02T21:39:49.312Z,1.60
2018-01-02T21:42:16.065Z,1.43
2018-01-02T21:44:42.769Z,1.37
2018-01-02T21:47:09.534Z,2.07
2018-01-02T21:49:37.193Z,1.40
2018-01-02T21:52:03.902Z,1.60
2018-01-02T21:54:30.707Z,1.30
2018-01-02T21:56:57.488Z,1.53
2018-01-02T21:59:24.188Z,1.57
2018-01-02T22:01:50.977Z,1.20
2018-01-02T22:04:17.772Z,1.47
2018-01-02T22:06:44.544Z,1.30
2018-01-02T22:09:11.291Z,1.20
2018-01-02T22:11:38.850Z,1.30
2018-01-02T22:14:05.574Z,1.17
2018-01-02T22:16:44.262Z,1.07
2018-01-02T22:19:11.152Z,1.20
2018-01-02T22:21:37.939Z,1.00
2018-01-02T22:24:04.860Z,1.13
2018-01-02T22:26:31.699Z,1.00
2018-01-02T22:28:58.549Z,1.00
2018-01-02T22:31:25.239Z,1.30
2018-01-02T22:33:52.567Z,1.10
2018-01-02T22:36:19.385Z,1.13
2018-01-02T22:38:46.136Z,1.50
2018-01-02T22:41:12.899Z,1.03
2018-01-02T22:43:39.667Z,1.70
2018-01-02T22:46:06.421Z,1.03
2018-01-02T22:48:33.114Z,1.30
2018-01-02T22:50:59.853Z,1.10
2018-01-02T22:53:26.584Z,1.37
2018-01-02T22:55:53.345Z,0.90
2018-01-02T22:58:20.035Z,1.00
2018-01-02T23:00:46.783Z,0.90
2018-01-02T23:03:13.678Z,0.67
2018-01-02T23:05:40.494Z,0.80
2018-01-02T23:08:07.250Z,0.93
2018-01-02T23:10:33.917Z,0.90
2018-01-02T23:13:01.646Z,1.10
2018-01-02T23:15:28.349Z,0.97
2018-01-02T23:17:55.066Z,0.97
2018-01-02T23:20:21.842Z,0.90
2018-01-02T23:22:48.523Z,0.70
2018-01-02T23:25:15.219Z,1.37
2018-01-02T23:27:41.917Z,0.63
2018-01-02T23:30:08.653Z,1.00
2018-01-02T23:32:35.352Z,0.80
2018-01-02T23:35:02.107Z,0.60
2018-01-02T23:37:28.892Z,0.97
2018-01-02T23:39:55.609Z,0.70
2018-01-02T23:42:22.321Z,1.03
2018-01-02T23:44:49.043Z,0.90
2018-01-02T23:47:15.750Z,1.00
2018-01-02T23:49:43.170Z,1.23
2018-01-02T23:52:09.893Z,2.20
2018-01-02T23:54:36.596Z,0.80
2018-01-02T23:57:03.420Z,0.90
2018-01-02T23:59:30.150Z,1.37
